Time;durP1;ratioP1;P1;durP2;ratioP2;P2;SDS_P1;SDS_P2;PMS_P1;PMS_P2;Temp;Humidity;BMP_temperature;BMP_pressure;BME280_temperature;BME280_humidity;BME280_pressure;Samples;Min_cycle;Max_cycle;Signal;HPM_P1;HPM_P2
2022/11/22 00:00:40;;;;;;;4.78;2.35;;;;;;;0.93;100.00;98719.31;1808677;78;21048;-90
2022/11/22 00:03:07;;;;;;;4.47;2.40;;;;;;;0.91;100.00;98723.67;1758063;78;21208;-90
2022/11/22 00:05:34;;;;;;;3.80;2.35;;;;;;;0.94;100.00;98727.04;1790450;78;21065;-90
2022/11/22 00:08:01;;;;;;;4.80;2.80;;;;;;;0.89;100.00;98723.69;1773801;80;21136;-90
2022/11/22 00:10:27;;;;;;;3.72;2.40;;;;;;;0.91;100.00;98729.70;1776095;78;21203;-89
2022/11/22 00:12:54;;;;;;;4.10;2.45;;;;;;;0.94;100.00;98725.73;1786465;80;21006;-90
2022/11/22 00:15:22;;;;;;;3.30;2.30;;;;;;;1.04;100.00;98731.61;1771935;77;21241;-90
2022/11/22 00:17:52;;;;;;;3.25;2.40;;;;;;;1.00;100.00;98733.41;1770306;78;20930;-88
2022/11/22 00:20:20;;;;;;;2.72;2.10;;;;;;;0.96;100.00;98730.91;1739943;78;21048;-89
2022/11/22 00:22:47;;;;;;;3.70;3.15;;;;;;;1.01;100.00;98736.42;1779672;78;20975;-90
2022/11/22 00:25:14;;;;;;;2.92;2.27;;;;;;;0.94;100.00;98739.16;1761622;78;21130;-90
2022/11/22 00:27:44;;;;;;;2.40;2.20;;;;;;;0.95;100.00;98736.54;1774956;80;21136;-89
2022/11/22 00:30:11;;;;;;;2.95;2.25;;;;;;;0.81;100.00;98738.11;1779064;78;21207;-90
2022/11/22 00:32:37;;;;;;;2.87;2.30;;;;;;;0.87;100.00;98733.23;1775470;78;21112;-90
2022/11/22 00:35:05;;;;;;;5.47;2.75;;;;;;;0.88;100.00;98733.66;1767620;80;21134;-88
2022/11/22 00:37:34;;;;;;;4.65;2.92;;;;;;;0.89;100.00;98744.42;1778083;80;21566;-89
2022/11/22 00:40:01;;;;;;;3.33;2.52;;;;;;;0.95;100.00;98742.17;1760123;80;21127;-88
2022/11/22 00:42:29;;;;;;;4.85;3.25;;;;;;;0.84;100.00;98735.90;1775741;80;21039;-89
2022/11/22 00:44:55;;;;;;;4.97;3.37;;;;;;;0.72;100.00;98751.25;1803449;78;21065;-89
2022/11/22 00:47:22;;;;;;;3.50;3.12;;;;;;;0.68;100.00;98758.66;1773715;78;22113;-89
2022/11/22 00:49:50;;;;;;;5.35;3.50;;;;;;;0.62;100.00;98757.05;1764502;79;21068;-88
2022/11/22 00:52:18;;;;;;;5.33;3.98;;;;;;;0.54;100.00;98765.39;1773274;79;22357;-90
2022/11/22 00:54:46;;;;;;;6.00;4.30;;;;;;;0.51;100.00;98762.02;1794635;78;21584;-89
2022/11/22 00:57:13;;;;;;;5.47;4.15;;;;;;;0.45;100.00;98768.16;1811222;78;20992;-89
2022/11/22 00:59:39;;;;;;;5.70;3.83;;;;;;;0.45;100.00;98766.02;1805336;78;20993;-89
2022/11/22 01:02:06;;;;;;;6.83;4.58;;;;;;;0.39;100.00;98764.37;1818251;78;21024;-91
2022/11/22 01:04:34;;;;;;;6.05;4.20;;;;;;;0.40;100.00;98766.09;1818396;75;21117;31
2022/11/22 01:07:01;;;;;;;6.55;4.20;;;;;;;0.36;100.00;98761.84;1701288;82;21083;-67
2022/11/22 01:09:28;;;;;;;8.60;4.53;;;;;;;0.30;100.00;98768.00;1686593;81;21087;-66
2022/11/22 01:11:55;;;;;;;8.08;3.75;;;;;;;0.26;100.00;98765.48;1712960;82;21571;-68
2022/11/22 01:14:22;;;;;;;6.25;3.85;;;;;;;0.20;100.00;98756.92;1724033;82;21549;-66
2022/11/22 01:16:49;;;;;;;6.28;3.40;;;;;;;0.19;100.00;98756.52;1718146;82;21990;-66
2022/11/22 01:19:16;;;;;;;7.35;3.77;;;;;;;0.23;100.00;98752.57;1756843;80;21132;-66
2022/11/22 01:21:44;;;;;;;4.20;3.47;;;;;;;0.23;100.00;98744.80;1753583;80;21116;-66
2022/11/22 01:24:11;;;;;;;4.95;3.72;;;;;;;0.21;100.00;98746.15;1746145;80;21012;-68
2022/11/22 01:26:39;;;;;;;4.55;3.47;;;;;;;0.19;100.00;98752.63;1751555;80;21584;-65
2022/11/22 01:29:06;;;;;;;4.83;3.58;;;;;;;0.11;100.00;98760.95;1756642;80;22263;-65
2022/11/22 01:31:34;;;;;;;3.98;3.15;;;;;;;0.06;100.00;98764.52;1747916;80;21044;-67
2022/11/22 01:34:02;;;;;;;3.98;2.95;;;;;;;-0.02;100.00;98765.95;1750544;80;21631;-67
2022/11/22 01:36:31;;;;;;;4.37;3.17;;;;;;;-0.01;100.00;98779.29;1732092;80;21550;-67
2022/11/22 01:38:57;;;;;;;6.12;3.70;;;;;;;-0.03;100.00;98788.80;1749377;80;21215;-66
2022/11/22 01:41:25;;;;;;;4.17;3.60;;;;;;;0.04;100.00;98791.70;1756375;80;21220;-67
2022/11/22 01:43:52;;;;;;;4.40;3.70;;;;;;;0.00;100.00;98795.25;1748798;80;21100;-65
2022/11/22 01:46:31;;;;;;;6.67;4.17;;;;;;;0.00;100.00;98799.13;1749510;80;21019;-68
2022/11/22 01:49:07;;;;;;;6.92;5.03;;;;;;;-0.03;100.00;98803.05;1755908;80;21171;-67
2022/11/22 01:51:41;;;;;;;6.85;4.45;;;;;;;-0.01;100.00;98803.43;1755282;79;21219;-67
2022/11/22 01:54:11;;;;;;;6.58;4.62;;;;;;;-0.08;100.00;98797.09;1717957;82;21872;-67
2022/11/22 01:56:38;;;;;;;;;;;;;;;-0.09;100.00;98805.71;1710404;82;21599;-66
2022/11/22 01:59:09;;;;;;;6.65;4.05;;;;;;;0.03;100.00;98805.55;1678792;83;20197;-66
2022/11/22 02:01:35;;;;;;;6.37;4.30;;;;;;;0.03;100.00;98814.61;1695508;83;21137;-67
2022/11/22 02:04:03;;;;;;;5.97;4.92;;;;;;;-0.06;100.00;98810.86;1689098;83;21487;-66
2022/11/22 02:06:59;;;;;;;6.50;4.70;;;;;;;-0.09;100.00;98809.59;1683837;83;21137;-66
2022/11/22 02:09:26;;;;;;;7.15;5.20;;;;;;;-0.09;100.00;98807.89;1685140;83;21173;-66
2022/11/22 02:11:53;;;;;;;8.55;5.37;;;;;;;-0.20;100.00;98817.98;1691852;83;21115;-67
2022/11/22 02:14:26;;;;;;;8.05;5.05;;;;;;;-0.19;100.00;98814.50;1684072;83;21159;-65
2022/11/22 02:16:52;;;;;;;8.20;5.00;;;;;;;-0.16;100.00;98811.86;1693149;82;21112;-66
2022/11/22 02:19:27;;;;;;;8.38;5.10;;;;;;;-0.17;100.00;98799.81;1693718;83;21216;-66
2022/11/22 02:21:58;;;;;;;7.10;5.20;;;;;;;-0.15;100.00;98805.83;1689386;83;21040;-66
2022/11/22 02:24:29;;;;;;;6.00;4.60;;;;;;;-0.10;100.00;98813.08;1696265;83;21110;-66
2022/11/22 02:26:56;;;;;;;6.78;5.30;;;;;;;-0.13;100.00;98815.72;1691451;83;21080;-66
2022/11/22 02:29:22;;;;;;;7.90;5.60;;;;;;;-0.24;100.00;98825.77;1683894;83;21077;-66
2022/11/22 02:31:49;;;;;;;6.20;5.28;;;;;;;-0.17;100.00;98820.07;1699506;83;21246;-67
2022/11/22 02:34:15;;;;;;;8.05;5.33;;;;;;;-0.16;100.00;98829.97;1689590;83;21037;-66
2022/11/22 02:36:49;;;;;;;7.30;5.17;;;;;;;-0.16;100.00;98837.73;1687551;83;21036;-65
2022/11/22 02:39:24;;;;;;;7.28;4.55;;;;;;;-0.15;100.00;98847.23;1693310;83;21090;-66
2022/11/22 02:41:50;;;;;;;7.55;5.05;;;;;;;-0.32;100.00;98845.73;1689821;83;21091;-66
2022/11/22 02:44:17;;;;;;;7.20;4.97;;;;;;;-0.27;100.00;98837.47;1691573;83;21259;-66
2022/11/22 02:46:51;;;;;;;7.47;5.30;;;;;;;-0.23;100.00;98848.20;1689451;83;21110;-68
2022/11/22 02:49:23;;;;;;;6.22;4.42;;;;;;;-0.31;100.00;98855.20;1687708;83;21100;-66
2022/11/22 02:51:50;;;;;;;11.10;5.67;;;;;;;-0.34;100.00;98859.57;1695789;82;21104;-66
2022/11/22 02:54:18;;;;;;;10.03;5.70;;;;;;;-0.44;100.00;98863.98;1689956;82;21076;-64
2022/11/22 02:56:46;;;;;;;7.55;5.67;;;;;;;-0.47;100.00;98861.45;1695713;82;21156;-67
2022/11/22 02:59:13;;;;;;;8.88;5.97;;;;;;;-0.54;100.00;98862.41;1696427;82;21080;-67
2022/11/22 03:01:40;;;;;;;7.75;5.70;;;;;;;-0.61;100.00;98871.96;1690641;83;21068;-66
2022/11/22 03:04:07;;;;;;;7.85;6.00;;;;;;;-0.45;100.00;98877.80;1697788;83;21104;-67
2022/11/22 03:06:35;;;;;;;11.75;6.20;;;;;;;-0.48;100.00;98876.12;1690656;83;21001;-66
2022/11/22 03:09:01;;;;;;;9.55;6.55;;;;;;;-0.62;100.00;98872.85;1687790;83;21071;-66
2022/11/22 03:11:28;;;;;;;9.95;6.42;;;;;;;-0.66;100.00;98877.19;1687074;83;21083;-67
2022/11/22 03:13:54;;;;;;;10.48;7.33;;;;;;;-0.69;100.00;98869.48;1698928;83;21087;-65
2022/11/22 03:16:20;;;;;;;8.85;6.20;;;;;;;-0.74;100.00;98873.82;1690482;83;21136;-65
2022/11/22 03:18:47;;;;;;;11.10;7.33;;;;;;;-0.77;100.00;98873.87;1684814;83;21683;-67
2022/11/22 03:21:15;;;;;;;10.88;6.62;;;;;;;-0.62;100.00;98887.48;1687411;83;21029;-66
2022/11/22 03:23:42;;;;;;;11.53;7.35;;;;;;;-0.66;100.00;98895.29;1688626;83;21235;-66
2022/11/22 03:26:10;;;;;;;11.22;7.67;;;;;;;-0.62;100.00;98896.53;1694326;82;21109;-66
2022/11/22 03:28:38;;;;;;;10.40;6.62;;;;;;;-0.59;100.00;98886.17;1707671;83;21045;-66
2022/11/22 03:31:06;;;;;;;12.60;7.65;;;;;;;-0.54;100.00;98886.97;1684312;83;21040;-67
2022/11/22 03:33:34;;;;;;;11.08;7.55;;;;;;;-0.63;100.00;98899.56;1683027;84;21913;-68
2022/11/22 03:36:00;;;;;;;11.90;7.47;;;;;;;-0.54;100.00;98903.78;1689411;84;21073;-66
2022/11/22 03:38:27;;;;;;;12.82;7.42;;;;;;;-0.61;100.00;98905.58;1684295;84;21176;-65
2022/11/22 03:40:53;;;;;;;12.50;7.62;;;;;;;-0.68;100.00;98905.23;1683745;84;21163;-66
2022/11/22 03:43:20;;;;;;;10.55;7.22;;;;;;;-0.70;100.00;98905.23;1682030;84;21370;-66
2022/11/22 03:45:46;;;;;;;12.33;7.58;;;;;;;-0.89;100.00;98902.00;1697641;84;21157;-67
2022/11/22 03:48:13;;;;;;;10.35;7.25;;;;;;;-0.82;100.00;98909.27;1693596;84;21084;-65
2022/11/22 03:50:39;;;;;;;14.30;8.78;;;;;;;-0.88;100.00;98912.75;1684511;84;21073;-66
2022/11/22 03:53:06;;;;;;;11.90;8.00;;;;;;;-0.82;100.00;98917.02;1699952;82;21586;-67
2022/11/22 03:55:33;;;;;;;11.68;7.78;;;;;;;-0.81;100.00;98921.73;1689936;84;21623;-66
2022/11/22 03:57:59;;;;;;;12.58;8.13;;;;;;;-0.78;100.00;98921.29;1682659;84;21937;-68
2022/11/22 04:00:26;;;;;;;12.20;8.10;;;;;;;-0.79;100.00;98929.05;1683831;84;21025;-67
2022/11/22 04:02:53;;;;;;;12.15;8.75;;;;;;;-0.77;100.00;98929.89;1680538;84;21053;-66
2022/11/22 04:05:22;;;;;;;15.87;9.50;;;;;;;-0.80;100.00;98934.66;1683763;83;21080;-65
2022/11/22 04:07:54;;;;;;;12.80;8.35;;;;;;;-0.84;100.00;98944.60;1683572;84;21037;-64
2022/11/22 04:10:18;;;;;;;13.88;9.08;;;;;;;-0.91;100.00;98954.59;1686443;84;21157;-66
2022/11/22 04:12:45;;;;;;;14.75;8.58;;;;;;;-0.95;100.00;98960.20;1687620;84;21066;-66
2022/11/22 04:15:11;;;;;;;14.43;8.93;;;;;;;-0.90;100.00;98967.92;1687438;84;21105;-67
2022/11/22 04:17:46;;;;;;;15.70;9.33;;;;;;;-0.76;100.00;98963.50;1686609;84;21058;-67
2022/11/22 04:23:17;;;;;;;17.82;10.95;;;;;;;-0.76;100.00;98958.33;1682002;84;21232;-66
2022/11/22 04:25:49;;;;;;;16.52;10.00;;;;;;;-0.83;100.00;98953.21;1686469;84;21121;-66
2022/11/22 04:28:19;;;;;;;14.98;9.58;;;;;;;-0.84;100.00;98948.48;1688028;84;21037;-67
2022/11/22 04:33:32;;;;;;;15.95;9.63;;;;;;;-0.78;100.00;98932.92;1708949;83;20982;-67
2022/11/22 04:35:59;;;;;;;17.27;8.95;;;;;;;-0.68;100.00;98937.11;1758387;81;21690;-66
2022/11/22 04:38:26;;;;;;;14.68;9.70;;;;;;;-0.64;100.00;98937.50;1749021;81;21114;-66
2022/11/22 04:40:53;;;;;;;14.38;9.00;;;;;;;-0.71;100.00;98947.49;1760102;81;21068;-66
2022/11/22 04:46:09;;;;;;;17.07;10.10;;;;;;;-0.93;100.00;98966.66;1757973;80;22176;-66
2022/11/22 04:48:37;;;;;;;12.03;8.73;;;;;;;-0.87;100.00;98966.61;1754869;81;21276;-68
2022/11/22 04:53:49;;;;;;;15.60;9.28;;;;;;;-0.82;100.00;98975.18;1753726;81;21241;-67
2022/11/22 04:56:16;;;;;;;14.28;8.05;;;;;;;-0.82;100.00;98980.34;1752301;81;21075;-66
2022/11/22 04:58:43;;;;;;;14.78;8.98;;;;;;;-0.89;100.00;98980.84;1759190;81;21621;-66
2022/11/22 05:01:10;;;;;;;13.38;8.90;;;;;;;-0.90;100.00;98985.59;1759423;80;21228;-67
2022/11/22 05:03:38;;;;;;;14.90;8.93;;;;;;;-0.96;100.00;98984.35;1754485;80;21138;-67
2022/11/22 05:06:06;;;;;;;14.45;9.48;;;;;;;-0.93;100.00;98992.06;1757631;81;21049;-66
2022/11/22 05:08:33;;;;;;;15.00;8.48;;;;;;;-0.79;100.00;98998.84;1755223;80;21051;-65
2022/11/22 05:11:01;;;;;;;16.65;9.20;;;;;;;-0.84;100.00;98998.89;1685518;84;21583;-66
2022/11/22 05:13:36;;;;;;;16.60;9.25;;;;;;;-0.83;100.00;98999.73;1693617;83;21036;-67
2022/11/22 05:16:04;;;;;;;11.88;8.05;;;;;;;-0.99;100.00;99001.59;1682418;84;21109;-66
2022/11/22 05:18:31;;;;;;;14.07;8.45;;;;;;;-0.91;100.00;99001.96;1686857;83;21110;-67
2022/11/22 05:20:59;;;;;;;15.75;8.55;;;;;;;-0.86;100.00;99014.41;1685230;83;21152;-67
2022/11/22 05:26:11;;;;;;;13.40;8.30;;;;;;;-0.90;100.00;99011.86;1693706;83;21270;-65
2022/11/22 05:28:38;;;;;;;12.98;7.90;;;;;;;-0.89;100.00;99014.44;1696707;83;21044;-68
2022/11/22 05:31:11;;;;;;;12.88;8.70;;;;;;;-0.76;100.00;99022.95;1691522;83;21155;-67
2022/11/22 05:33:39;;;;;;;13.18;8.40;;;;;;;-0.80;100.00;99025.14;1689465;84;21192;-66
2022/11/22 05:36:06;;;;;;;14.13;8.28;;;;;;;-0.84;100.00;99024.73;1689504;83;21124;-68
2022/11/22 05:38:37;;;;;;;14.93;8.95;;;;;;;-0.87;100.00;99028.66;1690842;83;21206;-69
2022/11/22 05:41:05;;;;;;;13.32;8.43;;;;;;;-0.87;100.00;99029.94;1685091;84;26772;-67
2022/11/22 05:43:32;;;;;;;13.20;8.70;;;;;;;-0.80;100.00;99031.60;1687281;84;21021;-68
2022/11/22 05:46:18;;;;;;;13.75;8.90;;;;;;;-0.75;100.00;99043.20;1685870;84;21050;-69
2022/11/22 05:48:45;;;;;;;12.55;8.00;;;;;;;-0.81;100.00;99044.09;1688220;84;21131;-66
2022/11/22 05:51:14;;;;;;;14.05;9.25;;;;;;;-0.85;100.00;99050.18;1682406;84;21628;-66
2022/11/22 05:53:41;;;;;;;14.85;9.53;;;;;;;-0.94;100.00;99054.13;1692787;83;21069;-67
2022/11/22 05:56:13;;;;;;;14.20;8.95;;;;;;;-0.82;100.00;99053.17;1688208;83;21524;-65
2022/11/22 05:58:40;;;;;;;16.52;10.55;;;;;;;-0.77;100.00;99049.66;1701414;83;21176;-67
2022/11/22 06:01:12;;;;;;;13.45;8.23;;;;;;;-0.73;100.00;99051.36;1695059;83;21138;-68
2022/11/22 06:03:39;;;;;;;15.32;8.88;;;;;;;-0.79;100.00;99051.84;1684778;83;21131;-67
2022/11/22 06:06:06;;;;;;;17.75;10.25;;;;;;;-0.81;100.00;99054.42;1690593;83;21524;-65
2022/11/22 06:08:35;;;;;;;13.32;8.43;;;;;;;-0.86;100.00;99051.88;1685414;83;21516;-66
2022/11/22 06:11:11;;;;;;;16.70;9.95;;;;;;;-0.88;100.00;99052.77;1682651;84;21056;-68
2022/11/22 06:13:40;;;;;;;14.60;9.38;;;;;;;-0.81;100.00;99051.84;1691501;84;21569;-65
2022/11/22 06:16:08;;;;;;;14.90;9.33;;;;;;;-0.79;100.00;99063.03;1691572;83;21358;-66
2022/11/22 06:18:34;;;;;;;15.10;9.43;;;;;;;-0.77;100.00;99066.91;1684698;84;21092;-69
2022/11/22 06:21:06;;;;;;;14.05;8.73;;;;;;;-0.68;100.00;99069.42;1707210;83;21048;-67
2022/11/22 06:23:32;;;;;;;16.37;9.55;;;;;;;-0.60;100.00;99074.07;1753410;80;25996;-67
2022/11/22 06:26:06;;;;;;;17.52;9.75;;;;;;;-0.52;100.00;99075.31;1754590;80;21000;-68
2022/11/22 06:28:35;;;;;;;16.65;10.00;;;;;;;-0.56;100.00;99076.20;1758011;80;21131;-68
2022/11/22 06:31:08;;;;;;;15.95;9.95;;;;;;;-0.60;100.00;99078.39;1756633;80;21071;-67
2022/11/22 06:33:36;;;;;;;17.20;9.45;;;;;;;-0.53;100.00;99081.34;1679965;84;21588;-67
2022/11/22 06:36:14;;;;;;;14.85;9.80;;;;;;;-0.50;100.00;99077.45;1697025;83;21041;-67
2022/11/22 06:38:42;;;;;;;14.63;9.78;;;;;;;-0.45;100.00;99077.81;1688331;83;21148;-66
2022/11/22 06:41:11;;;;;;;19.32;9.48;;;;;;;-0.44;100.00;99082.55;1688014;83;21838;-67
2022/11/22 06:43:41;;;;;;;17.80;9.65;;;;;;;-0.41;100.00;99091.59;1686935;83;21098;-67
2022/11/22 06:46:07;;;;;;;19.00;10.15;;;;;;;-0.39;100.00;99093.73;1684219;83;21100;-67
2022/11/22 06:48:36;;;;;;;16.95;9.80;;;;;;;-0.34;100.00;99086.78;1684338;83;21090;-66
2022/11/22 06:51:14;;;;;;;16.30;10.05;;;;;;;-0.33;100.00;99088.48;1691693;83;21651;-68
2022/11/22 06:53:41;;;;;;;18.90;10.70;;;;;;;-0.36;100.00;99097.58;1691020;83;21167;-67
2022/11/22 06:56:18;;;;;;;13.98;8.78;;;;;;;-0.45;100.00;99108.01;1690839;83;21109;-67
2022/11/22 06:58:46;;;;;;;17.82;10.60;;;;;;;-0.47;100.00;99104.57;1685558;83;21083;-68
2022/11/22 07:01:18;;;;;;;17.07;10.15;;;;;;;-0.52;100.00;99114.95;1688013;83;21175;-68
2022/11/22 07:03:45;;;;;;;17.85;10.28;;;;;;;-0.40;100.00;99121.75;1690017;83;21068;-68
2022/11/22 07:06:13;;;;;;;16.65;9.88;;;;;;;-0.37;100.00;99129.48;1685086;83;21121;-67
2022/11/22 07:08:41;;;;;;;18.60;10.93;;;;;;;-0.31;100.00;99122.96;1685934;83;21112;-67
2022/11/22 07:11:11;;;;;;;17.15;10.98;;;;;;;-0.33;100.00;99127.73;1688337;83;21118;-66
2022/11/22 07:13:38;;;;;;;19.45;10.58;;;;;;;-0.33;100.00;99131.17;1689881;83;21046;-68
2022/11/22 07:16:06;;;;;;;16.40;10.40;;;;;;;-0.44;100.00;99132.98;1687683;83;21064;-68
2022/11/22 07:18:33;;;;;;;17.15;10.90;;;;;;;-0.45;100.00;99138.61;1687243;84;21803;-66
2022/11/22 07:21:06;;;;;;;16.00;9.53;;;;;;;-0.35;100.00;99139.37;1693260;83;21142;-67
2022/11/22 07:23:33;;;;;;;18.65;10.75;;;;;;;-0.38;100.00;99139.41;1689541;83;21054;-67
2022/11/22 07:25:59;;;;;;;17.05;10.10;;;;;;;-0.29;100.00;99138.04;1691959;83;21619;-66
2022/11/22 07:28:26;;;;;;;15.25;8.90;;;;;;;-0.08;100.00;99143.89;1684481;84;21222;-67
2022/11/22 07:30:58;;;;;;;18.45;10.90;;;;;;;-0.04;100.00;99149.02;1686656;83;21123;-67
2022/11/22 07:33:25;;;;;;;17.62;10.32;;;;;;;-0.28;100.00;99143.62;1676129;84;21065;-66
2022/11/22 07:35:52;;;;;;;15.35;10.32;;;;;;;-0.14;100.00;99146.52;1752154;80;21114;-67
2022/11/22 07:38:19;;;;;;;16.52;10.05;;;;;;;-0.03;100.00;99149.88;1751921;81;21111;-67
2022/11/22 07:40:45;;;;;;;17.02;10.93;;;;;;;-0.02;100.00;99147.28;1749806;81;21065;-68
2022/11/22 07:43:12;;;;;;;19.23;11.05;;;;;;;-0.28;100.00;99152.67;1752484;80;21776;-67
2022/11/22 07:45:38;;;;;;;18.10;10.03;;;;;;;-0.14;100.00;99149.11;1754305;81;21019;-67
2022/11/22 07:48:06;;;;;;;14.53;9.25;;;;;;;-0.11;100.00;99156.88;1753388;80;21044;-67
2022/11/22 07:50:32;;;;;;;19.70;10.75;;;;;;;-0.12;100.00;99160.31;1756378;80;21692;-67
2022/11/22 07:52:59;;;;;;;17.15;10.68;;;;;;;-0.02;100.00;99169.72;1755048;80;21567;-67
2022/11/22 07:55:27;;;;;;;16.27;9.08;;;;;;;-0.02;100.00;99168.43;1752747;80;21530;-67
2022/11/22 07:57:53;;;;;;;16.25;10.58;;;;;;;0.25;100.00;99168.56;1752828;80;21084;-67
2022/11/22 08:00:20;;;;;;;17.52;10.50;;;;;;;0.29;100.00;99170.70;1754483;81;21085;-67
2022/11/22 08:02:48;;;;;;;20.12;11.70;;;;;;;0.41;100.00;99171.84;1723334;81;21064;-67
2022/11/22 08:05:16;;;;;;;19.98;11.40;;;;;;;0.43;100.00;99175.73;1707374;82;21068;-66
2022/11/22 08:07:51;;;;;;;19.30;10.75;;;;;;;0.43;100.00;99175.28;1702754;83;21116;-68
2022/11/22 08:10:18;;;;;;;23.92;11.50;;;;;;;0.41;100.00;99179.62;1694848;82;21565;-67
2022/11/22 08:12:44;;;;;;;18.90;10.90;;;;;;;0.48;100.00;99183.00;1699168;82;21536;-67
2022/11/22 08:15:14;;;;;;;18.77;11.35;;;;;;;0.57;100.00;99180.30;1702724;82;21095;-68
2022/11/22 08:17:42;;;;;;;18.97;11.60;;;;;;;0.59;100.00;99172.92;1704852;82;21049;-68
2022/11/22 08:20:10;;;;;;;17.10;10.40;;;;;;;0.69;100.00;99171.52;1705700;82;21131;-68
2022/11/22 08:22:37;;;;;;;19.50;11.22;;;;;;;0.62;100.00;99172.91;1698764;82;21121;-68
2022/11/22 08:25:07;;;;;;;17.17;10.70;;;;;;;0.66;100.00;99168.98;1703872;82;21238;-67
2022/11/22 08:27:33;;;;;;;16.62;10.88;;;;;;;0.71;100.00;99168.48;1702771;82;20985;-68
2022/11/22 08:29:59;;;;;;;19.30;11.50;;;;;;;0.67;100.00;99164.20;1708589;82;21032;-66
2022/11/22 08:32:26;;;;;;;16.97;10.78;;;;;;;0.71;100.00;99163.30;1714768;82;21138;-66
2022/11/22 08:34:53;;;;;;;18.42;11.30;;;;;;;0.74;100.00;99169.75;1708028;82;21013;-68
2022/11/22 08:37:20;;;;;;;20.15;11.15;;;;;;;0.69;100.00;99171.11;1702506;82;21530;-67
2022/11/22 08:39:47;;;;;;;18.25;10.28;;;;;;;0.59;100.00;99172.92;1705504;82;21112;-67
2022/11/22 08:42:13;;;;;;;19.48;11.48;;;;;;;0.56;100.00;99169.53;1701377;83;21072;-68
2022/11/22 08:44:40;;;;;;;18.27;10.05;;;;;;;0.47;100.00;99180.85;1701784;82;21630;-66
2022/11/22 08:47:07;;;;;;;18.45;11.30;;;;;;;0.43;100.00;99172.69;1705314;82;21084;-66
2022/11/22 08:49:33;;;;;;;19.20;12.05;;;;;;;0.51;100.00;99177.80;1698611;82;21664;-68
2022/11/22 08:52:00;;;;;;;19.00;11.10;;;;;;;0.43;100.00;99180.45;1699493;82;21436;-66
2022/11/22 08:54:27;;;;;;;20.17;12.15;;;;;;;0.50;100.00;99176.92;1698731;82;21031;-67
2022/11/22 08:56:53;;;;;;;20.45;12.28;;;;;;;0.49;100.00;99182.99;1686966;82;21192;-67
2022/11/22 08:59:20;;;;;;;18.30;10.95;;;;;;;0.54;100.00;99183.79;1698751;82;21024;-66
2022/11/22 09:01:47;;;;;;;20.35;11.60;;;;;;;0.55;100.00;99195.00;1688705;82;21085;-67
2022/11/22 09:04:13;;;;;;;19.92;11.38;;;;;;;0.52;100.00;99192.02;1689101;82;21560;-69
2022/11/22 09:09:21;;;;;;;19.20;11.53;;;;;;;0.13;100.00;99195.44;1795899;79;22600;-67
2022/11/22 09:11:48;;;;;;;19.37;10.78;;;;;;;0.49;100.00;99197.69;1756298;81;21030;-67
2022/11/22 09:14:15;;;;;;;18.92;10.93;;;;;;;0.54;100.00;99194.16;1756177;81;21332;-67
2022/11/22 09:16:41;;;;;;;16.87;10.48;;;;;;;0.54;100.00;99194.59;1756144;81;21041;-67
2022/11/22 09:19:08;;;;;;;18.27;10.43;;;;;;;0.66;100.00;99193.15;1756302;81;21616;-67
2022/11/22 09:21:36;;;;;;;19.30;10.63;;;;;;;0.62;100.00;99195.34;1756446;81;21041;-67
2022/11/22 09:24:04;;;;;;;18.05;10.68;;;;;;;0.63;100.00;99194.05;1756475;81;21029;-68
2022/11/22 09:26:31;;;;;;;18.80;10.80;;;;;;;0.53;100.00;99196.75;1756489;81;21154;-67
2022/11/22 09:29:00;;;;;;;17.23;10.48;;;;;;;0.58;100.00;99191.95;1756466;81;21103;-67
2022/11/22 09:31:26;;;;;;;18.67;10.93;;;;;;;0.61;100.00;99195.80;1756538;81;21061;-67
2022/11/22 09:33:52;;;;;;;18.07;11.18;;;;;;;0.57;100.00;99198.44;1756327;81;20987;-67
2022/11/22 09:36:21;;;;;;;15.95;9.60;;;;;;;0.59;100.00;99199.28;1756242;81;21041;-65
2022/11/22 09:38:48;;;;;;;19.23;11.15;;;;;;;0.65;100.00;99196.62;1756382;81;21932;-67
2022/11/22 09:41:29;;;;;;;17.15;10.55;;;;;;;0.70;100.00;99201.76;1756474;81;21037;-67
2022/11/22 09:44:49;;;;;;;16.75;9.85;;;;;;;0.76;100.00;99198.66;1756562;81;22019;-67
2022/11/22 09:48:01;;;;;;;18.50;10.30;;;;;;;0.82;100.00;99204.19;1756871;81;21101;-67
2022/11/22 09:51:05;;;;;;;19.70;11.55;;;;;;;0.92;100.00;99210.99;1747676;80;21672;-66
2022/11/22 09:53:41;;;;;;;19.65;10.72;;;;;;;0.95;100.00;99216.13;1790811;80;21251;-66
2022/11/22 09:56:12;;;;;;;19.23;11.53;;;;;;;1.04;100.00;99223.79;1755751;81;21040;-66
2022/11/22 09:58:54;;;;;;;;;;;;;;;1.05;100.00;99212.53;1758249;81;21063;-66
2022/11/22 10:01:28;;;;;;;22.50;11.93;;;;;;;1.11;100.00;99206.42;1729834;82;20211;-66
2022/11/22 10:04:09;;;;;;;17.25;10.65;;;;;;;1.03;100.00;99212.12;1729847;82;21034;-67
2022/11/22 10:06:45;;;;;;;18.10;10.80;;;;;;;1.02;100.00;99220.80;1721242;83;21226;-68
2022/11/22 10:09:48;;;;;;;18.98;11.08;;;;;;;1.21;100.00;99222.70;1708133;82;21062;-67
2022/11/22 10:12:29;;;;;;;19.23;11.25;;;;;;;1.17;100.00;99222.32;1703178;82;21047;-67
2022/11/22 10:15:36;;;;;;;21.33;12.30;;;;;;;1.04;100.00;99223.79;1738724;82;21006;-66
2022/11/22 10:18:41;;;;;;;19.80;11.97;;;;;;;0.95;100.00;99226.50;1738758;82;21034;-67
2022/11/22 10:21:11;;;;;;;18.05;10.53;;;;;;;0.93;100.00;99229.99;1740290;81;21310;-68
2022/11/22 10:23:41;;;;;;;20.00;11.63;;;;;;;1.05;100.00;99236.31;1740116;82;21495;-66
2022/11/22 10:26:27;;;;;;;26.17;12.80;;;;;;;1.09;100.00;99235.84;1739948;82;21076;-67
2022/11/22 10:29:22;;;;;;;18.25;11.50;;;;;;;1.05;100.00;99242.34;1714061;82;21074;-66
2022/11/22 10:31:58;;;;;;;22.15;12.58;;;;;;;0.99;100.00;99242.45;1740023;82;21047;-67
2022/11/22 10:35:12;;;;;;;19.20;11.55;;;;;;;0.98;100.00;99231.64;1739695;82;21158;-67
2022/11/22 10:38:09;;;;;;;17.87;10.43;;;;;;;0.91;100.00;99237.77;1740051;82;21018;-66
2022/11/22 10:40:50;;;;;;;25.45;11.35;;;;;;;1.01;100.00;99236.80;1739932;82;21192;-69
2022/11/22 10:43:45;;;;;;;23.30;11.68;;;;;;;0.89;100.00;99236.94;1737469;82;21507;-68
2022/11/22 10:46:32;;;;;;;22.02;11.90;;;;;;;0.96;100.00;99237.27;1740136;82;21360;-68
2022/11/22 10:49:21;;;;;;;21.17;12.40;;;;;;;0.86;100.00;99236.98;1738646;82;21161;-67
2022/11/22 10:52:00;;;;;;;21.65;11.40;;;;;;;0.86;100.00;99226.61;1740298;82;21569;-67
2022/11/22 10:54:51;;;;;;;21.60;12.58;;;;;;;0.96;100.00;99221.72;1733994;82;21558;-67
2022/11/22 10:57:39;;;;;;;17.90;10.53;;;;;;;1.08;100.00;99237.55;1739999;82;21034;-66
2022/11/22 11:00:24;;;;;;;17.57;10.93;;;;;;;1.13;100.00;99240.09;1740293;82;21558;-66
2022/11/22 11:03:05;;;;;;;18.35;11.83;;;;;;;1.11;100.00;99227.61;1739585;82;21225;-66
2022/11/22 11:05:44;;;;;;;19.70;11.40;;;;;;;1.03;100.00;99231.58;1739935;82;21041;-67
2022/11/22 11:08:15;;;;;;;23.90;12.10;;;;;;;1.08;100.00;99231.52;1742283;82;21058;-67
2022/11/22 11:10:41;;;;;;;21.62;12.40;;;;;;;1.05;100.00;99233.27;1750428;82;21057;-67
2022/11/22 11:13:25;;;;;;;17.48;11.03;;;;;;;1.25;100.00;99230.87;1750611;82;21328;-66
2022/11/22 11:15:54;;;;;;;17.98;11.85;;;;;;;1.14;100.00;99222.38;1749773;82;21157;-68
2022/11/22 11:18:38;;;;;;;21.17;12.33;;;;;;;1.16;100.00;99229.25;1750343;82;21034;-67
2022/11/22 11:21:10;;;;;;;20.32;12.23;;;;;;;1.19;100.00;99229.64;1750336;82;21055;-68
2022/11/22 11:23:34;;;;;;;18.23;11.43;;;;;;;1.15;100.00;99235.74;1748983;81;21503;-67
2022/11/22 11:26:19;;;;;;;21.35;12.60;;;;;;;1.32;100.00;99229.91;1750085;82;21065;-67
2022/11/22 11:28:47;;;;;;;22.05;12.85;;;;;;;1.32;100.00;99231.20;1750104;82;21041;-68
2022/11/22 11:31:17;;;;;;;20.85;12.30;;;;;;;1.36;100.00;99235.47;1724526;82;20990;-67
2022/11/22 11:33:42;;;;;;;22.73;13.72;;;;;;;1.31;100.00;99235.10;1750347;82;21621;-67
2022/11/22 11:36:21;;;;;;;21.70;12.25;;;;;;;1.25;100.00;99233.47;1750335;82;21549;-66
2022/11/22 11:38:55;;;;;;;;;;;;;;;1.22;100.00;99238.67;1703132;82;21065;-67
2022/11/22 11:41:29;;;;;;;20.88;12.05;;;;;;;1.33;100.00;99240.69;1750639;82;21176;-68
2022/11/22 11:43:59;;;;;;;22.52;13.60;;;;;;;1.21;100.00;99247.34;1750732;82;21054;-67
2022/11/22 11:46:28;;;;;;;24.43;13.80;;;;;;;1.25;100.00;99245.14;1750455;82;21049;-67
2022/11/22 11:49:10;;;;;;;22.17;11.65;;;;;;;1.22;100.00;99247.75;1750675;82;21010;-68
2022/11/22 11:51:43;;;;;;;21.77;12.75;;;;;;;1.08;100.00;99257.45;1750238;82;21038;-67
2022/11/22 11:54:44;;;;;;;22.30;12.95;;;;;;;0.92;100.00;99255.06;1749099;82;21142;-68